Latest Weather Observations for St George

IDQ60801

Issued at 11:52 am EST Tuesday 23 April 2024 (issued every 10 minutes, with the page automatically refreshed every 10 minutes)

About weather observations | Map of weather stations | Latest weather observations for QLD | Other Formats
Station Details ID: 043109 Name: ST GEORGE AIRPORT Lat: -28.05 Lon: 148.60 Height: 198.5 m
Data from the previous 72 hours. | See also: Recent months at St George
Date/Time
EST
Temp
°C
App
Temp
°C
Dew
Point
°C
Rel
Hum
%
Delta-T
°C
Wind Press
QNH
hPa
Press
MSL
hPa
Rain since
9am
mm
Dir  Spd
km/h
Gust
km/h
Spd
kts
Gust
kts
23/11:30am 24.8 22.8 14.0 51 6.4 ENE 17 30 9 16 1023.1 1022.4 0.0
23/11:00am 24.2 22.2 14.0 53 6.0 NE 17 30 9 16 1023.7 1023.0 0.0
23/10:30am 23.4 21.1 14.1 56 5.5 ENE 19 28 10 15 1024.3 1023.6 0.0
23/10:00am 22.3 19.5 14.2 60 4.8 E 22 30 12 16 1024.5 1023.8 0.0
23/09:30am 21.5 19.6 14.2 63 4.3 E 17 20 9 11 1024.6 1023.9 0.0
23/09:00am 20.2 17.6 13.9 67 3.6 E 20 28 11 15 1024.7 1024.0 0.0
23/08:30am 19.4 17.9 14.2 72 3.0 E 15 20 8 11 1024.6 1023.9 0.0
23/08:00am 17.3 16.0 13.6 79 2.1 E 13 20 7 11 1024.3 1023.6 0.0
23/07:30am 16.1 15.5 13.4 84 1.5 E 9 11 5 6 1024.1 1023.4 0.0
23/07:00am 14.0 13.8 13.1 94 0.5 E 6 7 3 4 1023.9 1023.2 0.0
23/06:30am 13.0 12.5 12.2 95 0.4 ENE 6 7 3 4 1023.6 1022.9 0.0
23/06:00am 12.9 12.2 12.0 94 0.5 NE 7 11 4 6 1023.4 1022.7 0.0
23/05:30am 13.6 13.0 12.3 92 0.7 NE 7 9 4 5 1023.1 1022.4 0.0
23/05:00am 14.3 13.9 12.3 88 1.1 NE 6 9 3 5 1023.1 1022.4 0.0
23/04:30am 14.6 14.1 12.5 87 1.2 ENE 7 9 4 5 1023.0 1022.3 0.0
23/04:00am 14.9 14.0 12.6 86 1.3 ENE 9 15 5 8 1022.8 1022.1 0.0
23/03:30am 15.4 13.8 12.9 85 1.4 ENE 13 19 7 10 1022.6 1021.9 0.0
23/03:00am 15.5 13.9 12.8 84 1.5 ENE 13 20 7 11 1022.5 1021.8 0.0
23/02:30am 15.4 14.2 12.9 85 1.4 ENE 11 17 6 9 1022.7 1022.0 0.0
23/02:00am 15.3 14.5 13.0 86 1.3 E 9 13 5 7 1023.0 1022.3 0.0
23/01:30am 15.6 14.5 13.1 85 1.4 ENE 11 17 6 9 1023.2 1022.5 0.0
23/01:00am 15.9 14.8 13.0 83 1.6 E 11 15 6 8 1023.4 1022.7 0.0
23/12:30am 16.1 15.0 13.0 82 1.7 ENE 11 13 6 7 1023.3 1022.6 0.0
23/12:00am 16.7 15.5 12.8 78 2.2 ENE 11 17 6 9 1023.3 1022.6 0.0
 
Date/Time
EST
Temp
°C
App
Temp
°C
Dew
Point
°C
Rel
Hum
%
Delta-T
°C
Wind Press
QNH
hPa
Press
MSL
hPa
Rain since
9am
mm
Dir  Spd
km/h
Gust
km/h
Spd
kts
Gust
kts
22/11:30pm 17.3 15.7 12.8 75 2.5 ENE 13 17 7 9 1023.2 1022.5 0.0
22/11:00pm 17.9 16.7 12.8 72 2.9 ENE 11 15 6 8 1023.1 1022.4 0.0
22/10:30pm 17.8 16.6 12.7 72 2.9 ENE 11 15 6 8 1023.0 1022.3 0.0
22/10:00pm 16.7 15.8 12.5 76 2.3 E 9 11 5 6 1023.1 1022.4 0.0
22/09:30pm 16.9 16.2 12.0 73 2.7 ESE 7 9 4 5 1023.1 1022.4 0.0
22/09:00pm 17.9 16.8 12.1 69 3.2 ESE 9 9 5 5 1022.9 1022.2 0.0
22/08:30pm 18.5 17.4 12.0 66 3.6 ESE 9 11 5 6 1022.8 1022.1 0.0
22/08:00pm 18.6 17.9 11.9 65 3.7 ESE 7 9 4 5 1022.7 1022.0 0.0
22/07:30pm 19.1 18.0 12.1 64 3.9 ESE 9 11 5 6 1022.4 1021.7 0.0
22/07:00pm 19.6 18.5 12.1 62 4.2 ESE 9 9 5 5 1022.2 1021.5 0.0
22/06:30pm 20.2 19.2 12.4 61 4.4 ESE 9 11 5 6 1022.1 1021.4 0.0
22/06:00pm 21.4 20.4 12.3 56 5.2 ESE 9 11 5 6 1021.8 1021.1 0.0
22/05:30pm 22.8 20.9 11.8 50 6.2 E 13 20 7 11 1021.6 1020.9 0.0
22/05:00pm 23.9 21.7 12.2 48 6.7 E 15 20 8 11 1021.3 1020.7 0.0
22/04:30pm 24.6 21.6 11.9 45 7.3 E 19 26 10 14 1021.2 1020.6 0.0
22/04:00pm 25.1 22.6 12.3 45 7.4 ESE 17 28 9 15 1021.2 1020.6 0.0
22/03:30pm 25.3 22.3 12.5 45 7.4 E 20 32 11 17 1021.5 1020.8 0.0
22/03:00pm 25.1 22.0 12.3 45 7.4 E 20 30 11 16 1021.6 1020.9 0.0
22/02:30pm 25.2 21.8 12.4 45 7.4 E 22 33 12 18 1021.7 1021.0 0.0
22/02:00pm 25.3 22.2 12.2 44 7.6 E 20 30 11 16 1021.8 1021.1 0.0
22/01:30pm 25.2 21.8 11.4 42 7.9 E 20 33 11 18 1021.9 1021.2 0.0
22/01:00pm 25.4 22.2 11.9 43 7.7 E 20 33 11 18 1022.3 1021.6 0.0
22/12:30pm 24.3 21.2 11.6 45 7.2 ESE 19 28 10 15 1022.8 1022.1 0.0
22/12:00pm 23.9 20.5 11.3 45 7.1 ESE 20 28 11 15 1023.5 1022.8 0.0
22/11:30am 23.8 20.6 11.8 47 6.8 E 20 33 11 18 1024.0 1023.3 0.0
22/11:00am 23.5 20.3 11.9 48 6.6 E 20 32 11 17 1024.4 1023.7 0.0
22/10:30am 22.7 19.4 11.7 49 6.2 ESE 20 32 11 17 1024.7 1024.0 0.0
22/10:00am 21.7 19.0 12.8 57 5.1 ESE 19 26 10 14 1024.7 1024.0 0.0
22/09:30am 21.3 18.7 13.2 60 4.7 ESE 19 26 10 14 1024.7 1024.0 0.0
22/09:00am 19.2 17.4 13.2 68 3.4 E 15 22 8 12 1025.0 1024.3 0.2
22/08:30am 17.8 15.7 13.7 77 2.3 ESE 17 24 9 13 1025.0 1024.3 0.2
22/08:00am 15.8 14.2 12.7 82 1.7 ESE 13 20 7 11 1024.7 1024.0 0.2
22/07:30am 15.0 14.2 13.0 88 1.1 ESE 9 13 5 7 1024.4 1023.7 0.2
22/07:00am 13.4 11.7 12.3 93 0.6 SE 13 15 7 8 1024.1 1023.4 0.2
22/06:30am 12.1 11.0 11.8 98 0.2 SSE 9 9 5 5 1023.8 1023.1 0.2
22/06:00am 11.8 10.2 11.5 98 0.2 SSE 11 11 6 6 1023.5 1022.8 0.2
22/05:30am 11.9 10.3 11.4 97 0.3 SSE 11 11 6 6 1023.4 1022.7 0.2
22/05:00am 12.2 11.2 12.2 100 0.0 SSE 9 11 5 6 1023.2 1022.5 0.2
22/04:30am 11.6 11.5 10.8 95 0.4 WSW 2 7 1 4 1023.1 1022.4 0.2
22/04:00am 12.1 12.7 11.8 98 0.2 CALM 0 0 0 0 1023.0 1022.3 0.2
22/03:30am 13.3 13.9 13.1 99 0.1 ESE 2 6 1 3 1022.8 1022.1 0.2
22/03:00am 13.8 13.8 13.6 99 0.1 ESE 6 7 3 4 1022.8 1022.1 0.2
22/02:30am 12.7 12.1 12.2 97 0.3 SSE 7 7 4 4 1022.9 1022.2 0.2
22/02:00am 12.8 13.6 12.6 99 0.1 CALM 0 0 0 0 1022.8 1022.1 0.2
22/01:30am 13.4 13.6 12.9 97 0.3 SE 4 6 2 3 1022.7 1022.0 0.2
22/01:00am 13.7 13.6 13.2 97 0.3 SE 6 7 3 4 1022.8 1022.1 0.2
22/12:30am 14.0 14.1 14.0 100 0.0 SE 6 7 3 4 1022.8 1022.1 0.2
22/12:00am 14.1 13.9 13.6 97 0.3 SE 7 9 4 5 1022.8 1022.1 0.2
 
Date/Time
EST
Temp
°C
App
Temp
°C
Dew
Point
°C
Rel
Hum
%
Delta-T
°C
Wind Press
QNH
hPa
Press
MSL
hPa
Rain since
9am
mm
Dir  Spd
km/h
Gust
km/h
Spd
kts
Gust
kts
21/11:30pm 14.7 14.8 13.9 95 0.5 ESE 6 6 3 3 1022.6 1021.9 0.2
21/11:00pm 15.2 16.7 14.7 97 0.3 CALM 0 0 0 0 1022.7 1022.0 0.2
21/10:30pm 15.5 17.0 14.7 95 0.5 CALM 0 0 0 0 1022.9 1022.2 0.2
21/10:00pm 15.9 17.4 14.6 92 0.7 CALM 0 0 0 0 1023.1 1022.4 0.2
21/09:30pm 16.5 18.1 14.9 90 0.9 CALM 0 0 0 0 1023.1 1022.4 0.2
21/09:00pm 17.4 18.5 15.6 89 1.1 S 4 6 2 3 1023.3 1022.6 0.2
21/08:30pm 17.3 19.2 15.8 91 0.9 CALM 0 0 0 0 1023.1 1022.4 0.2
21/08:00pm 17.7 19.5 15.5 87 1.3 CALM 0 0 0 0 1023.0 1022.3 0.2
21/07:30pm 17.9 19.6 15.3 85 1.5 CALM 0 0 0 0 1022.7 1022.0 0.2
21/07:00pm 18.0 19.6 14.9 82 1.8 CALM 0 0 0 0 1022.4 1021.7 0.2
21/06:30pm 18.2 18.6 14.7 80 2.0 ESE 6 7 3 4 1021.9 1021.2 0.2
21/06:00pm 19.3 19.5 14.6 74 2.7 E 7 11 4 6 1021.7 1021.0 0.2
21/05:30pm 20.5 18.5 13.9 66 3.8 E 17 22 9 12 1021.7 1021.0 0.2
21/05:00pm 21.9 19.7 13.3 58 5.0 E 17 24 9 13 1021.6 1020.9 0.2
21/04:30pm 22.5 19.8 13.0 55 5.5 ESE 19 28 10 15 1021.1 1020.5 0.2
21/04:00pm 23.0 20.5 13.5 55 5.5 ESE 19 24 10 13 1020.8 1020.1 0.2
21/03:30pm 22.3 18.6 12.8 55 5.5 ESE 24 35 13 19 1020.6 1019.9 0.2
21/03:00pm 22.0 19.5 13.6 59 4.9 ESE 19 28 10 15 1020.5 1019.8 0.2
21/02:30pm 22.5 19.8 13.6 57 5.2 ESE 20 28 11 15 1020.5 1019.8 0.2
21/02:00pm 22.0 18.4 13.1 57 5.1 ESE 24 35 13 19 1020.6 1019.9 0.2
21/01:30pm 21.4 16.7 13.3 60 4.7 SE 30 41 16 22 1020.8 1020.1 0.2
21/01:00pm 21.0 17.6 13.7 63 4.2 ESE 24 35 13 19 1020.9 1020.3 0.2
21/12:30pm 21.4 18.2 14.3 64 4.2 SE 24 35 13 19 1021.2 1020.6 0.2
21/12:00pm 21.1 18.0 14.5 66 3.9 SSE 24 33 13 18 1021.8 1021.1 0.2
21/11:30am 19.7 16.9 15.4 76 2.6 SSE 24 32 13 17 1022.3 1021.6 0.2
21/11:00am 18.5 16.2 15.6 83 1.7 SSE 22 32 12 17 1022.7 1022.0 0.2
21/10:30am 17.8 16.3 16.3 91 0.9 SSE 19 24 10 13 1022.5 1021.8 0.2
21/10:00am 17.0 16.1 15.9 93 0.7 SSE 15 19 8 10 1022.6 1021.9 0.2
21/09:30am 16.3 15.2 15.3 94 0.6 SE 15 19 8 10 1023.0 1022.3 0.2
21/09:00am 15.8 14.6 15.0 95 0.5 SE 15 20 8 11 1023.0 1022.3 2.0
21/08:30am 15.3 13.9 14.5 95 0.5 SE 15 19 8 10 1022.7 1022.0 1.8
21/08:00am 15.3 14.7 14.7 96 0.3 ESE 11 15 6 8 1022.7 1022.0 1.8
21/07:30am 14.6 12.9 13.5 93 0.6 ESE 15 20 8 11 1022.3 1021.6 1.8
21/07:00am 14.6 12.7 14.3 98 0.2 SSE 17 20 9 11 1021.9 1021.2 1.6
21/06:30am 14.5 14.1 14.2 98 0.2 SE 9 13 5 7 1021.7 1021.0 1.2
21/06:00am 14.6 13.4 14.0 96 0.3 ESE 13 19 7 10 1021.7 1021.0 0.4
21/05:30am 13.5 12.1 13.3 99 0.1 SE 13 17 7 9 1021.2 1020.6 0.0
21/05:00am 12.3 11.6 12.1 99 0.1 SE 7 9 4 5 1020.8 1020.1 0.0
21/04:30am 12.1 11.4 11.9 99 0.1 ESE 7 9 4 5 1020.8 1020.1 0.0
21/04:00am 11.8 11.1 11.5 98 0.2 SE 6 7 3 4 1020.6 1019.9 0.0
21/03:30am 11.9 10.6 11.4 97 0.3 SSE 9 11 5 6 1020.4 1019.7 0.0
21/03:00am 12.5 11.3 11.7 95 0.4 SE 9 11 5 6 1020.4 1019.7 0.0
21/02:30am 12.6 11.8 11.8 95 0.4 ESE 7 11 4 6 1020.6 1019.9 0.0
21/02:00am 13.0 12.0 12.4 96 0.3 SE 9 13 5 7 1020.6 1019.9 0.0
21/01:30am 13.2 11.5 12.4 95 0.4 SE 13 15 7 8 1020.6 1019.9 0.0
21/01:00am 13.6 12.4 12.7 94 0.5 SE 11 15 6 8 1020.7 1020.0 0.0
21/12:30am 13.7 12.1 12.8 94 0.5 SSE 13 17 7 9 1020.8 1020.1 0.0
21/12:00am 13.1 12.5 12.3 95 0.4 SE 7 13 4 7 1021.2 1020.6 0.0
 
Date/Time
EST
Temp
°C
App
Temp
°C
Dew
Point
°C
Rel
Hum
%
Delta-T
°C
Wind Press
QNH
hPa
Press
MSL
hPa
Rain since
9am
mm
Dir  Spd
km/h
Gust
km/h
Spd
kts
Gust
kts
20/11:30pm 13.3 12.0 12.5 95 0.4 SW 11 15 6 8 1021.1 1020.5 0.0
20/11:00pm 13.1 11.3 12.0 93 0.6 WSW 13 17 7 9 1020.9 1020.3 0.0
20/10:30pm 12.6 10.7 11.8 95 0.4 WSW 13 15 7 8 1021.1 1020.5 0.0
20/10:00pm 12.5 10.7 10.9 90 0.8 WSW 11 11 6 6 1021.1 1020.5 0.0
20/09:30pm 13.2 12.3 11.4 89 1.0 SW 7 9 4 5 1021.2 1020.6 0.0
20/09:00pm 13.5 11.7 11.0 85 1.3 SW 11 11 6 6 1021.2 1020.6 0.0
20/08:30pm 14.3 12.6 11.1 81 1.7 SW 11 13 6 7 1021.1 1020.5 0.0
20/08:00pm 15.2 12.7 11.2 77 2.2 SW 15 17 8 9 1020.9 1020.3 0.0
20/07:30pm 15.5 13.4 11.3 76 2.3 SW 13 15 7 8 1020.7 1020.0 0.0
20/07:00pm 15.4 13.6 10.8 74 2.5 SW 11 13 6 7 1020.3 1019.6 0.0
20/06:30pm 16.1 14.2 10.6 70 2.9 SW 11 13 6 7 1020.1 1019.4 0.0
20/06:00pm 17.1 14.8 10.5 65 3.5 SSW 13 19 7 10 1019.8 1019.1 0.0
20/05:30pm 18.1 15.6 9.7 58 4.5 SSW 13 17 7 9 1019.4 1018.7 0.0
20/05:00pm 18.9 15.6 9.4 54 5.0 SSW 17 20 9 11 1019.0 1018.3 0.0
20/04:30pm 20.1 15.9 9.9 52 5.5 SSW 22 32 12 17 1018.7 1018.0 0.0
20/04:00pm 20.7 16.2 10.2 51 5.7 SSW 24 32 13 17 1018.4 1017.7 0.0
20/03:30pm 20.6 16.3 10.7 53 5.4 SW 24 35 13 19 1018.1 1017.4 0.0
20/03:00pm 21.8 17.7 8.7 43 7.0 SSW 20 32 11 17 1017.9 1017.2 0.0
20/02:30pm 20.0 15.1 10.1 53 5.4 SSW 26 33 14 18 1017.8 1017.1 0.0
20/02:00pm 21.5 17.2 10.6 50 6.0 SW 24 32 13 17 1018.0 1017.3 0.0
20/01:30pm 19.9 17.4 10.9 56 5.0 SW 15 22 8 12 1018.3 1017.6 0.0
20/01:00pm 19.9 16.7 9.8 52 5.4 SSW 17 26 9 14 1018.5 1017.8 0.0
20/12:30pm 20.0 17.2 11.2 57 4.9 SSW 17 26 9 14 1019.0 1018.3 0.0
20/12:00pm 19.5 17.1 10.2 55 5.0 WSW 13 20 7 11 1019.6 1018.9 0.0

Other formats

Comma delimited format used in spreadsheet applications
http://www.bom.gov.au/fwo/IDQ60801/IDQ60801.94517.axf

JavaScript Object Notation format (JSON) in row-major order
http://www.bom.gov.au/fwo/IDQ60801/IDQ60801.94517.json

Data quality

Most of these data are generated automatically and are frequently updated. Quality checks on data are not normally performed. It is possible for incorrect values to appear. Refer to information at About Latest Weather Observations and please check the disclaimer before using these data.